Time;durP1;ratioP1;P1;durP2;ratioP2;P2;SDS_P1;SDS_P2;PMS_P1;PMS_P2;Temp;Humidity;BMP_temperature;BMP_pressure;BME280_temperature;BME280_humidity;BME280_pressure;Samples;Min_cycle;Max_cycle;Signal;HPM_P1;HPM_P2
2023/11/04 00:00:08;;;;;;;;;;;8.50;99.90;;;;;;8353242;28;19939;-69
2023/11/04 00:04:10;;;;;;;;;;;8.50;99.90;;;;;;8358406;28;19924;-69
2023/11/04 00:08:13;;;;;;;;;;;8.50;99.90;;;;;;8353209;28;19924;-69
2023/11/04 00:12:16;;;;;;;;;;;8.60;99.90;;;;;;8348923;28;19976;-69
2023/11/04 00:16:18;;;;;;;;;;;8.60;99.90;;;;;;8356811;28;19932;-69
2023/11/04 00:20:19;;;;;;;;;;;8.60;99.90;;;;;;8354233;28;19959;-69
2023/11/04 00:24:21;;;;;;;;;;;8.60;99.90;;;;;;8357458;28;19925;-69
2023/11/04 00:28:23;;;;;;;;;;;8.70;99.90;;;;;;8355305;28;20720;-69
2023/11/04 00:37:28;;;;;;;;;;;8.70;99.90;;;;;;8354310;28;20382;-69
2023/11/04 00:41:30;;;;;;;;;;;8.70;99.90;;;;;;8355217;28;19925;-69
2023/11/04 00:45:32;;;;;;;;;;;8.80;99.90;;;;;;8356366;28;19939;-69
2023/11/04 00:49:33;;;;;;;;;;;8.80;99.90;;;;;;8326003;28;20388;-69
2023/11/04 00:53:35;;;;;;;;;;;8.80;99.90;;;;;;8356336;28;19932;-69
2023/11/04 00:57:38;;;;;;;;;;;8.80;99.90;;;;;;8355467;28;20029;-69
2023/11/04 01:01:41;;;;;;;;;;;8.80;99.90;;;;;;8352057;28;19971;-69
2023/11/04 01:05:43;;;;;;;;;;;8.80;99.90;;;;;;8353635;28;19929;-69
2023/11/04 01:09:44;;;;;;;;;;;8.80;99.90;;;;;;8354039;28;19932;-69
2023/11/04 01:13:46;;;;;;;;;;;8.90;99.90;;;;;;8359954;28;19928;-69
2023/11/04 01:17:48;;;;;;;;;;;8.90;99.90;;;;;;8360955;28;19929;-69
2023/11/04 01:21:50;;;;;;;;;;;8.90;99.90;;;;;;8345493;28;20239;-69
2023/11/04 01:25:52;;;;;;;;;;;9.00;99.90;;;;;;8357189;28;20303;-69
2023/11/04 01:29:53;;;;;;;;;;;9.00;99.90;;;;;;8342174;28;19932;-69
2023/11/04 01:33:55;;;;;;;;;;;9.00;99.90;;;;;;8362215;28;20284;-69
2023/11/04 01:37:57;;;;;;;;;;;9.00;99.90;;;;;;8361043;28;19932;-69
2023/11/04 01:42:05;;;;;;;;;;;9.00;99.90;;;;;;8360230;28;19928;-69
2023/11/04 01:46:07;;;;;;;;;;;9.00;99.90;;;;;;8353076;28;20398;-69
2023/11/04 01:50:09;;;;;;;;;;;9.10;99.90;;;;;;8359125;28;20002;-69
2023/11/04 01:54:11;;;;;;;;;;;9.10;99.90;;;;;;8358291;28;19925;-69
2023/11/04 01:58:13;;;;;;;;;;;9.10;99.90;;;;;;8356737;28;19925;-69
2023/11/04 02:02:15;;;;;;;;;;;9.10;99.90;;;;;;8338401;28;19925;-69
2023/11/04 02:06:17;;;;;;;;;;;9.20;99.90;;;;;;8357230;28;19925;-69
2023/11/04 02:10:19;;;;;;;;;;;9.20;99.90;;;;;;8351915;28;20435;-69
2023/11/04 02:14:21;;;;;;;;;;;9.20;99.90;;;;;;8357772;28;19933;-69
2023/11/04 02:18:22;;;;;;;;;;;9.20;99.90;;;;;;8359520;28;19925;-69
2023/11/04 02:22:24;;;;;;;;;;;9.30;99.90;;;;;;8355743;28;19925;-69
2023/11/04 02:26:26;;;;;;;;;;;9.30;99.90;;;;;;8360658;28;19925;-69
2023/11/04 02:30:28;;;;;;;;;;;9.30;99.90;;;;;;8359700;28;19929;-69
2023/11/04 02:34:30;;;;;;;;;;;9.40;99.90;;;;;;8357439;28;19925;-69
2023/11/04 02:38:31;;;;;;;;;;;9.40;99.90;;;;;;8360157;28;19925;-69
2023/11/04 02:42:33;;;;;;;;;;;9.40;99.90;;;;;;8354268;28;19933;-69
2023/11/04 02:46:35;;;;;;;;;;;9.40;99.90;;;;;;8358992;28;20311;-69
2023/11/04 02:50:36;;;;;;;;;;;9.40;99.90;;;;;;8357404;28;19924;-69
2023/11/04 02:54:39;;;;;;;;;;;9.40;99.90;;;;;;8355798;28;19932;-69
2023/11/04 02:58:41;;;;;;;;;;;9.40;99.90;;;;;;8359547;28;20427;-69
2023/11/04 03:02:42;;;;;;;;;;;9.40;99.90;;;;;;8353189;28;19960;-69
2023/11/04 03:06:44;;;;;;;;;;;9.40;99.90;;;;;;8357757;28;20296;-69
2023/11/04 03:10:46;;;;;;;;;;;9.40;99.90;;;;;;8349010;28;19928;-69
2023/11/04 03:14:48;;;;;;;;;;;9.40;99.90;;;;;;8356382;28;20048;-69
2023/11/04 03:18:50;;;;;;;;;;;9.40;99.90;;;;;;8359691;28;19954;-69
2023/11/04 03:22:51;;;;;;;;;;;9.40;99.90;;;;;;8354113;28;19932;-69
2023/11/04 03:26:53;;;;;;;;;;;9.50;99.90;;;;;;8355346;28;19940;-69
2023/11/04 03:30:55;;;;;;;;;;;9.50;99.90;;;;;;8355881;28;20400;-69
2023/11/04 03:34:56;;;;;;;;;;;9.50;99.90;;;;;;8334873;28;20275;-69
2023/11/04 03:38:58;;;;;;;;;;;9.50;99.90;;;;;;8356843;28;20380;-69
2023/11/04 03:43:00;;;;;;;;;;;9.50;99.90;;;;;;8354419;28;20380;-69
2023/11/04 03:47:01;;;;;;;;;;;9.50;99.90;;;;;;8356234;28;20446;-69
2023/11/04 03:51:08;;;;;;;;;;;9.50;99.90;;;;;;8356141;28;19936;-69
2023/11/04 03:55:10;;;;;;;;;;;9.50;99.90;;;;;;8356209;28;19929;-69
2023/11/04 03:59:12;;;;;;;;;;;9.50;99.90;;;;;;8356683;28;20277;-69
2023/11/04 04:03:14;;;;;;;;;;;9.50;99.90;;;;;;8354351;28;19932;-69
2023/11/04 04:07:16;;;;;;;;;;;9.50;99.90;;;;;;8339827;28;19929;-69
2023/11/04 04:11:22;;;;;;;;;;;9.50;99.90;;;;;;8347219;28;19932;-69
2023/11/04 04:15:24;;;;;;;;;;;9.50;99.90;;;;;;8353568;28;19968;-69
2023/11/04 04:19:26;;;;;;;;;;;9.40;99.90;;;;;;8355535;28;19931;-69
2023/11/04 04:23:27;;;;;;;;;;;9.40;99.90;;;;;;8351907;28;19935;-69
2023/11/04 04:27:30;;;;;;;;;;;9.40;99.90;;;;;;8355816;28;20427;-69
2023/11/04 04:31:31;;;;;;;;;;;9.40;99.90;;;;;;8352164;28;19925;-69
2023/11/04 04:35:34;;;;;;;;;;;9.40;99.90;;;;;;8353314;28;19925;-69
2023/11/04 04:39:37;;;;;;;;;;;9.50;99.90;;;;;;8361958;28;19928;-69
2023/11/04 04:59:08;;;;;;;;;;;9.60;99.90;;;;;;8353087;28;19923;-69
2023/11/04 05:03:10;;;;;;;;;;;9.60;99.90;;;;;;8352871;28;19955;-69
2023/11/04 05:07:12;;;;;;;;;;;9.60;99.90;;;;;;8355972;28;20003;-69
2023/11/04 05:11:13;;;;;;;;;;;9.60;99.90;;;;;;8334250;28;19936;-69
2023/11/04 05:15:15;;;;;;;;;;;9.60;99.90;;;;;;8340682;28;19925;-69
2023/11/04 05:19:17;;;;;;;;;;;9.60;99.90;;;;;;8344122;28;19933;-69
2023/11/04 05:23:19;;;;;;;;;;;9.60;99.90;;;;;;8345947;28;19925;-69
2023/11/04 05:27:21;;;;;;;;;;;9.60;99.90;;;;;;8348084;28;19932;-69
2023/11/04 05:31:22;;;;;;;;;;;9.70;99.90;;;;;;8350402;28;19975;-69
2023/11/04 05:35:24;;;;;;;;;;;9.70;99.90;;;;;;8354913;28;20300;-69
2023/11/04 05:39:26;;;;;;;;;;;9.70;99.90;;;;;;8352896;28;20288;-69
2023/11/04 05:43:27;;;;;;;;;;;9.70;99.90;;;;;;8352105;28;20027;-69
2023/11/04 05:47:29;;;;;;;;;;;9.70;99.90;;;;;;8347244;28;19932;-69
2023/11/04 05:51:31;;;;;;;;;;;9.70;99.90;;;;;;8352396;28;19932;-69
2023/11/04 05:55:33;;;;;;;;;;;9.70;99.90;;;;;;8360919;28;19936;-69
2023/11/04 05:59:35;;;;;;;;;;;9.70;99.90;;;;;;8355991;28;20308;-69
2023/11/04 06:03:37;;;;;;;;;;;9.70;99.90;;;;;;8358951;28;19955;-69
2023/11/04 06:07:39;;;;;;;;;;;9.70;99.90;;;;;;8356625;28;19977;-69
2023/11/04 06:11:41;;;;;;;;;;;9.70;99.90;;;;;;8350596;28;19966;-69
2023/11/04 06:15:42;;;;;;;;;;;9.70;99.90;;;;;;8355172;28;19932;-69
2023/11/04 06:19:44;;;;;;;;;;;9.70;99.90;;;;;;8358267;28;19982;-69
2023/11/04 06:23:46;;;;;;;;;;;9.70;99.90;;;;;;8351771;28;19928;-69
2023/11/04 06:27:47;;;;;;;;;;;9.80;99.90;;;;;;8354428;28;19936;-69
2023/11/04 06:31:49;;;;;;;;;;;9.80;99.90;;;;;;8362949;28;19932;-69
2023/11/04 06:35:51;;;;;;;;;;;9.80;99.90;;;;;;8357454;28;19925;-69
2023/11/04 06:39:52;;;;;;;;;;;9.80;99.90;;;;;;8340620;28;19925;-69
2023/11/04 06:43:54;;;;;;;;;;;9.80;99.90;;;;;;8357773;28;20315;-69
2023/11/04 06:47:58;;;;;;;;;;;9.80;99.90;;;;;;8361510;28;19924;-69
2023/11/04 06:52:00;;;;;;;;;;;9.80;99.90;;;;;;8357199;28;20575;-69
2023/11/04 06:56:02;;;;;;;;;;;9.80;99.90;;;;;;8344209;28;19943;-69
2023/11/04 07:00:04;;;;;;;;;;;9.80;99.90;;;;;;8356211;28;19932;-69
2023/11/04 07:04:06;;;;;;;;;;;9.80;99.90;;;;;;8355142;28;20360;-69
2023/11/04 07:08:08;;;;;;;;;;;9.80;99.90;;;;;;8357117;28;19972;-69
2023/11/04 07:12:10;;;;;;;;;;;9.80;99.90;;;;;;8345163;28;19924;-69
2023/11/04 07:16:12;;;;;;;;;;;9.80;99.90;;;;;;8355442;28;19955;-69
2023/11/04 07:20:14;;;;;;;;;;;9.80;99.90;;;;;;8357043;28;19932;-69
2023/11/04 07:24:15;;;;;;;;;;;9.80;99.90;;;;;;8357283;28;19925;-69
2023/11/04 07:28:17;;;;;;;;;;;9.80;99.90;;;;;;8356716;28;19925;-69
2023/11/04 07:32:19;;;;;;;;;;;9.80;99.90;;;;;;8357238;28;19993;-69
2023/11/04 07:36:24;;;;;;;;;;;9.80;99.90;;;;;;8357287;28;19954;-69
2023/11/04 07:40:26;;;;;;;;;;;9.90;99.90;;;;;;8354342;28;19925;-69
2023/11/04 07:44:28;;;;;;;;;;;9.90;99.90;;;;;;8355025;28;19924;-69
2023/11/04 07:48:29;;;;;;;;;;;9.90;99.90;;;;;;8358240;28;19987;-69
2023/11/04 07:52:32;;;;;;;;;;;10.00;99.90;;;;;;8355718;28;19925;-69
2023/11/04 07:56:38;;;;;;;;;;;10.00;99.90;;;;;;8357219;28;19925;-69
2023/11/04 08:00:40;;;;;;;;;;;10.10;99.90;;;;;;8356874;28;19929;-69
2023/11/04 08:04:41;;;;;;;;;;;10.10;99.90;;;;;;8355377;28;19936;-69
2023/11/04 08:08:43;;;;;;;;;;;10.20;99.90;;;;;;8348986;28;21034;-69
2023/11/04 08:12:45;;;;;;;;;;;10.20;99.90;;;;;;8353330;28;20438;-69
2023/11/04 08:16:46;;;;;;;;;;;10.20;99.90;;;;;;8353702;28;20292;-69
2023/11/04 08:20:48;;;;;;;;;;;10.20;99.90;;;;;;8357474;28;19925;-69
2023/11/04 08:24:50;;;;;;;;;;;10.30;99.90;;;;;;8353150;28;20395;-69
2023/11/04 08:28:52;;;;;;;;;;;10.20;99.90;;;;;;8353109;28;19929;-69
2023/11/04 08:32:54;;;;;;;;;;;10.30;99.90;;;;;;8356681;28;19948;-69
2023/11/04 08:36:55;;;;;;;;;;;10.20;99.90;;;;;;8339711;28;19933;-69
2023/11/04 08:40:57;;;;;;;;;;;10.20;99.90;;;;;;8352832;28;19929;-69
2023/11/04 08:44:59;;;;;;;;;;;10.20;99.90;;;;;;8338516;28;19932;-69
2023/11/04 08:49:00;;;;;;;;;;;10.20;99.90;;;;;;8354936;28;19928;-69
2023/11/04 08:53:03;;;;;;;;;;;10.20;99.90;;;;;;8357282;28;19925;-69
2023/11/04 08:57:05;;;;;;;;;;;10.30;99.90;;;;;;8355914;28;19925;-70
2023/11/04 09:01:07;;;;;;;;;;;10.20;99.90;;;;;;8351663;28;19978;-69
2023/11/04 09:05:10;;;;;;;;;;;10.30;99.90;;;;;;8356689;28;19929;-70
2023/11/04 09:09:15;;;;;;;;;;;10.30;99.90;;;;;;8349247;28;20387;-69
2023/11/04 09:13:17;;;;;;;;;;;10.40;99.90;;;;;;8353630;28;19936;-69
2023/11/04 09:17:18;;;;;;;;;;;10.50;99.90;;;;;;8355362;28;19925;-69
2023/11/04 09:21:20;;;;;;;;;;;10.50;99.90;;;;;;8351795;28;19925;-70
2023/11/04 09:25:22;;;;;;;;;;;10.60;99.90;;;;;;8355731;28;20384;-69
2023/11/04 09:29:24;;;;;;;;;;;10.70;99.90;;;;;;8357148;28;19929;-69
2023/11/04 09:33:27;;;;;;;;;;;10.90;99.90;;;;;;8363220;28;19925;-69
2023/11/04 09:37:29;;;;;;;;;;;11.00;99.90;;;;;;8344816;28;19931;-69
2023/11/04 09:41:31;;;;;;;;;;;11.00;99.90;;;;;;8358020;28;19925;-69
2023/11/04 09:45:36;;;;;;;;;;;11.00;99.90;;;;;;8362752;28;19928;-69
2023/11/04 09:49:37;;;;;;;;;;;11.00;99.90;;;;;;8358946;28;20046;-69
2023/11/04 09:53:42;;;;;;;;;;;11.10;99.90;;;;;;8362234;28;19955;-69
2023/11/04 09:57:44;;;;;;;;;;;11.10;99.90;;;;;;8362726;28;19976;-69
2023/11/04 10:01:46;;;;;;;;;;;11.10;99.90;;;;;;8356484;28;19950;-69
2023/11/04 10:05:48;;;;;;;;;;;11.20;99.90;;;;;;8362390;28;19947;-70
2023/11/04 10:09:50;;;;;;;;;;;11.30;99.90;;;;;;8350453;28;19951;-69
2023/11/04 10:13:52;;;;;;;;;;;11.30;99.90;;;;;;8357316;28;19932;-70
2023/11/04 10:17:54;;;;;;;;;;;11.40;99.90;;;;;;8362160;28;19925;-69
2023/11/04 10:21:56;;;;;;;;;;;11.40;99.90;;;;;;8328997;28;20048;-69
2023/11/04 10:25:58;;;;;;;;;;;11.40;99.90;;;;;;8322999;28;19933;-69
2023/11/04 10:30:00;;;;;;;;;;;11.40;99.90;;;;;;8324936;28;19968;-70
2023/11/04 10:34:04;;;;;;;;;;;11.40;99.90;;;;;;8322828;28;19983;-70
2023/11/04 10:38:06;;;;;;;;;;;11.30;99.90;;;;;;8321555;28;20023;-69
2023/11/04 10:42:11;;;;;;;;;;;11.30;99.90;;;;;;8321982;28;19929;-70
2023/11/04 10:46:42;;;;;;;;;;;11.30;99.90;;;;;;8323971;28;19925;-69
2023/11/04 10:50:45;;;;;;;;;;;11.30;99.90;;;;;;8308735;28;19925;-69
2023/11/04 10:55:04;;;;;;;;;;;11.30;99.90;;;;;;8322629;28;19929;-70
2023/11/04 10:59:06;;;;;;;;;;;11.30;99.90;;;;;;8321682;28;20016;-70
2023/11/04 11:03:11;;;;;;;;;;;11.20;99.90;;;;;;8320619;28;19952;-70
2023/11/04 11:07:16;;;;;;;;;;;11.30;99.90;;;;;;8325045;28;19933;-69
2023/11/04 11:11:24;;;;;;;;;;;11.20;99.90;;;;;;8324352;28;20602;-69
2023/11/04 11:15:27;;;;;;;;;;;11.20;99.90;;;;;;8322718;28;19924;-69
2023/11/04 11:19:29;;;;;;;;;;;11.20;99.90;;;;;;8322979;28;19932;-69
2023/11/04 11:23:31;;;;;;;;;;;11.20;99.90;;;;;;8322982;28;19960;-69
2023/11/04 11:27:43;;;;;;;;;;;11.20;99.90;;;;;;8323493;28;19929;-70
2023/11/04 11:31:46;;;;;;;;;;;11.20;99.90;;;;;;8320878;28;20323;-69
2023/11/04 11:35:59;;;;;;;;;;;11.20;99.90;;;;;;8323319;28;19932;-70
2023/11/04 11:40:11;;;;;;;;;;;11.20;99.90;;;;;;8323499;28;19929;-69
2023/11/04 11:44:14;;;;;;;;;;;11.10;99.90;;;;;;8323040;28;20015;-70
2023/11/04 11:48:16;;;;;;;;;;;11.00;99.90;;;;;;8322251;28;19962;-69
2023/11/04 11:52:18;;;;;;;;;;;11.00;99.90;;;;;;8324130;28;20295;-70
2023/11/04 11:56:19;;;;;;;;;;;10.80;99.90;;;;;;8324192;28;19932;-69
2023/11/04 12:00:23;;;;;;;;;;;10.80;99.90;;;;;;8316412;28;19929;-70
2023/11/04 12:04:25;;;;;;;;;;;10.70;99.90;;;;;;8319171;28;20307;-69
2023/11/04 12:08:27;;;;;;;;;;;10.70;99.90;;;;;;8316676;28;20025;-70
2023/11/04 12:12:29;;;;;;;;;;;10.70;99.90;;;;;;8335530;28;19929;-69
2023/11/04 12:16:31;;;;;;;;;;;10.70;99.90;;;;;;8319770;28;19936;-69
2023/11/04 12:20:34;;;;;;;;;;;10.70;99.90;;;;;;8316787;28;19924;-70
2023/11/04 12:24:36;;;;;;;;;;;10.80;99.90;;;;;;8319014;28;19933;-69
2023/11/04 12:28:38;;;;;;;;;;;10.70;99.90;;;;;;8319028;28;20302;-70
2023/11/04 12:32:40;;;;;;;;;;;10.70;99.90;;;;;;8319899;28;19976;-69
2023/11/04 12:36:41;;;;;;;;;;;10.60;99.90;;;;;;8339275;28;19929;-69
2023/11/04 12:40:43;;;;;;;;;;;10.50;99.90;;;;;;8324629;28;19947;-70
2023/11/04 12:44:44;;;;;;;;;;;10.40;99.90;;;;;;8329662;28;20016;-69
2023/11/04 12:48:46;;;;;;;;;;;10.40;99.90;;;;;;8326707;28;20572;-69
2023/11/04 12:52:49;;;;;;;;;;;10.30;99.90;;;;;;8329131;28;19943;-69
2023/11/04 12:56:51;;;;;;;;;;;10.20;99.90;;;;;;8325395;28;19972;-70
2023/11/04 13:00:53;;;;;;;;;;;10.20;99.90;;;;;;8320552;28;19977;-70
2023/11/04 13:04:57;;;;;;;;;;;10.20;99.90;;;;;;8327262;28;19929;-70
2023/11/04 13:09:01;;;;;;;;;;;10.10;99.90;;;;;;8330140;28;20380;-69
2023/11/04 13:13:03;;;;;;;;;;;10.10;99.90;;;;;;8334786;28;19929;-70
2023/11/04 13:17:05;;;;;;;;;;;10.00;99.90;;;;;;8334690;28;19935;-70
2023/11/04 13:21:09;;;;;;;;;;;10.00;99.90;;;;;;8329847;28;19928;-70
2023/11/04 13:25:11;;;;;;;;;;;10.00;99.90;;;;;;8332984;28;20268;-70
2023/11/04 13:29:12;;;;;;;;;;;10.00;99.90;;;;;;8331129;28;19975;-70
2023/11/04 13:43:23;;;;;;;;;;;10.00;99.90;;;;;;8313676;28;20399;-70
2023/11/04 13:47:25;;;;;;;;;;;10.00;99.90;;;;;;8328211;28;20392;-70
2023/11/04 13:51:27;;;;;;;;;;;9.90;99.90;;;;;;8327702;28;20380;-70
2023/11/04 13:55:29;;;;;;;;;;;10.00;99.90;;;;;;8327337;28;19932;-70
2023/11/04 13:59:30;;;;;;;;;;;10.00;99.90;;;;;;8323265;28;20340;-70
2023/11/04 14:03:33;;;;;;;;;;;10.00;99.90;;;;;;8326082;28;20372;-70
2023/11/04 14:07:35;;;;;;;;;;;10.00;99.90;;;;;;8323753;28;20403;-70
2023/11/04 14:11:37;;;;;;;;;;;10.00;99.90;;;;;;8329049;28;19936;-70
2023/11/04 14:15:39;;;;;;;;;;;10.00;99.90;;;;;;8327111;28;19973;-70
2023/11/04 14:19:40;;;;;;;;;;;10.00;99.90;;;;;;8324286;28;19956;-70
2023/11/04 14:23:42;;;;;;;;;;;10.00;99.90;;;;;;8325073;28;19940;-70
2023/11/04 14:27:44;;;;;;;;;;;10.00;99.90;;;;;;8322916;28;20320;-70
2023/11/04 14:31:45;;;;;;;;;;;10.00;99.90;;;;;;8321031;28;19974;-70
2023/11/04 14:35:49;;;;;;;;;;;9.90;99.90;;;;;;8340768;28;19972;-70
2023/11/04 14:39:51;;;;;;;;;;;9.90;99.90;;;;;;8330009;28;20536;-70
2023/11/04 14:43:55;;;;;;;;;;;9.90;99.90;;;;;;8328130;28;20270;-70
2023/11/04 14:47:56;;;;;;;;;;;9.90;99.90;;;;;;8326846;28;19925;-70
2023/11/04 14:51:59;;;;;;;;;;;9.90;99.90;;;;;;8324972;28;19935;-70
2023/11/04 14:56:01;;;;;;;;;;;9.90;99.90;;;;;;8327158;28;19996;-70
2023/11/04 15:00:03;;;;;;;;;;;9.90;99.90;;;;;;8326395;28;19933;-70
2023/11/04 15:04:05;;;;;;;;;;;9.90;99.90;;;;;;8326478;28;19933;-70
2023/11/04 15:08:06;;;;;;;;;;;9.90;99.90;;;;;;8325605;28;19929;-70
2023/11/04 15:12:09;;;;;;;;;;;9.90;99.90;;;;;;8325427;28;19972;-70
2023/11/04 15:16:11;;;;;;;;;;;9.90;99.90;;;;;;8324016;28;19925;-70
2023/11/04 15:20:13;;;;;;;;;;;9.90;99.90;;;;;;8325103;28;20024;-70
2023/11/04 15:24:15;;;;;;;;;;;9.90;99.90;;;;;;8324736;28;19925;-70
2023/11/04 15:28:17;;;;;;;;;;;9.90;99.90;;;;;;8327066;28;19925;-70
2023/11/04 15:32:18;;;;;;;;;;;9.90;99.90;;;;;;8323735;28;19936;-70
2023/11/04 15:36:20;;;;;;;;;;;9.90;99.90;;;;;;8322411;28;19929;-70
2023/11/04 15:40:22;;;;;;;;;;;9.90;99.90;;;;;;8324900;28;20011;-70
2023/11/04 15:44:23;;;;;;;;;;;9.90;99.90;;;;;;8323581;28;20178;-70
2023/11/04 15:48:26;;;;;;;;;;;9.90;99.90;;;;;;8320726;28;19929;-70
2023/11/04 15:52:27;;;;;;;;;;;10.00;99.90;;;;;;8326334;28;20043;-70
2023/11/04 15:56:31;;;;;;;;;;;10.00;99.90;;;;;;8322491;28;20427;-70
2023/11/04 16:10:40;;;;;;;;;;;10.00;99.90;;;;;;8324163;28;20353;-70
2023/11/04 16:14:42;;;;;;;;;;;10.10;99.90;;;;;;8326043;28;19925;-70
2023/11/04 16:18:44;;;;;;;;;;;10.10;99.90;;;;;;8323030;28;19991;-70
2023/11/04 16:22:46;;;;;;;;;;;10.10;99.90;;;;;;8320475;28;19936;-70
2023/11/04 16:26:47;;;;;;;;;;;10.10;99.90;;;;;;8323241;28;19945;-70
2023/11/04 16:30:49;;;;;;;;;;;10.10;99.90;;;;;;8320540;28;19979;-70
2023/11/04 16:34:52;;;;;;;;;;;10.10;99.90;;;;;;8321025;28;19979;-70
2023/11/04 16:38:54;;;;;;;;;;;10.10;99.90;;;;;;8320615;28;19925;-70
2023/11/04 16:42:55;;;;;;;;;;;10.20;99.90;;;;;;8321348;28;20012;-70
2023/11/04 16:46:57;;;;;;;;;;;10.20;99.90;;;;;;8323510;28;20270;-70
2023/11/04 16:50:59;;;;;;;;;;;10.20;99.90;;;;;;8323415;28;20356;-70
2023/11/04 16:55:00;;;;;;;;;;;10.20;99.90;;;;;;8323013;28;19979;-70
2023/11/04 16:59:02;;;;;;;;;;;10.20;99.90;;;;;;8322271;28;19932;-70
2023/11/04 17:03:04;;;;;;;;;;;10.20;99.90;;;;;;8316023;28;19979;-70
2023/11/04 17:07:06;;;;;;;;;;;10.20;99.90;;;;;;8337932;28;19933;-70
2023/11/04 17:11:07;;;;;;;;;;;10.20;99.90;;;;;;8320001;28;19997;-70
2023/11/04 17:15:09;;;;;;;;;;;10.30;99.90;;;;;;8319226;28;20903;-70
2023/11/04 17:19:11;;;;;;;;;;;10.30;99.90;;;;;;8315763;28;19956;-70
2023/11/04 17:23:13;;;;;;;;;;;10.40;99.90;;;;;;8320948;28;19928;-70
2023/11/04 17:27:15;;;;;;;;;;;10.30;99.90;;;;;;8318223;28;20364;-70
2023/11/04 17:31:17;;;;;;;;;;;10.40;99.90;;;;;;8316064;28;19932;-70
2023/11/04 17:35:18;;;;;;;;;;;10.40;99.90;;;;;;8301196;28;19955;-70
2023/11/04 17:39:20;;;;;;;;;;;10.40;99.90;;;;;;8318179;28;19929;-70
2023/11/04 17:43:22;;;;;;;;;;;10.40;99.90;;;;;;8319473;28;19929;-70
2023/11/04 17:47:23;;;;;;;;;;;10.40;99.90;;;;;;8322172;28;19928;-70
2023/11/04 17:51:27;;;;;;;;;;;10.40;99.90;;;;;;8324917;28;19932;-70
2023/11/04 17:55:28;;;;;;;;;;;10.50;99.90;;;;;;8330097;28;20842;-70
2023/11/04 17:59:30;;;;;;;;;;;10.50;99.90;;;;;;8323605;28;19928;-70
2023/11/04 18:03:32;;;;;;;;;;;10.40;99.90;;;;;;8329194;28;19948;-69
2023/11/04 18:07:34;;;;;;;;;;;10.40;99.90;;;;;;8325774;28;19929;-70
2023/11/04 18:11:36;;;;;;;;;;;10.30;99.90;;;;;;8324237;28;19966;-70
2023/11/04 18:15:38;;;;;;;;;;;10.30;99.90;;;;;;8326218;28;19982;-70
2023/11/04 18:19:42;;;;;;;;;;;10.30;99.90;;;;;;8327171;28;19932;-70
2023/11/04 18:23:44;;;;;;;;;;;10.30;99.90;;;;;;8323812;28;19933;-70
2023/11/04 18:27:46;;;;;;;;;;;10.30;99.90;;;;;;8324836;28;19940;-70
2023/11/04 18:31:56;;;;;;;;;;;10.30;99.90;;;;;;8339593;28;20012;-70
2023/11/04 18:36:02;;;;;;;;;;;10.20;99.90;;;;;;8322711;28;19929;-70
2023/11/04 18:40:04;;;;;;;;;;;10.20;99.90;;;;;;8321563;28;19995;-70
2023/11/04 18:44:06;;;;;;;;;;;10.20;99.90;;;;;;8328021;28;19939;-70
2023/11/04 18:48:08;;;;;;;;;;;10.20;99.90;;;;;;8321794;28;19933;-70
2023/11/04 18:52:12;;;;;;;;;;;10.10;99.90;;;;;;8324097;28;19936;-70
2023/11/04 18:56:18;;;;;;;;;;;10.10;99.90;;;;;;8327173;28;19960;-70
2023/11/04 19:00:21;;;;;;;;;;;10.00;99.90;;;;;;8319873;28;19925;-70
2023/11/04 19:04:23;;;;;;;;;;;10.00;99.90;;;;;;8324482;28;20743;-70
2023/11/04 19:08:25;;;;;;;;;;;10.00;99.90;;;;;;8323353;28;19940;-70
2023/11/04 19:12:26;;;;;;;;;;;10.00;99.90;;;;;;8322457;28;20331;-70
2023/11/04 19:16:28;;;;;;;;;;;9.90;99.90;;;;;;8325005;28;19936;-70
2023/11/04 19:20:29;;;;;;;;;;;9.90;99.90;;;;;;8321461;28;19955;-70
2023/11/04 19:24:31;;;;;;;;;;;9.90;99.90;;;;;;8321528;28;19932;-70
2023/11/04 19:28:33;;;;;;;;;;;9.90;99.90;;;;;;8323678;28;19925;-70
2023/11/04 19:32:35;;;;;;;;;;;9.90;99.90;;;;;;8322983;28;19983;-70
2023/11/04 19:36:36;;;;;;;;;;;9.90;99.90;;;;;;8322228;28;20425;-70
2023/11/04 19:40:38;;;;;;;;;;;9.90;99.90;;;;;;8323799;28;19925;-70
2023/11/04 19:44:41;;;;;;;;;;;9.80;99.90;;;;;;8322611;28;19960;-70
2023/11/04 19:48:43;;;;;;;;;;;9.80;99.90;;;;;;8323156;28;19959;-70
2023/11/04 19:52:45;;;;;;;;;;;9.80;99.90;;;;;;8322862;28;19925;-70
2023/11/04 19:56:47;;;;;;;;;;;9.70;99.90;;;;;;8316781;28;19933;-70
2023/11/04 20:00:48;;;;;;;;;;;9.80;99.90;;;;;;8319039;28;19929;-70
2023/11/04 20:04:51;;;;;;;;;;;9.80;99.90;;;;;;8319122;28;19929;-70
2023/11/04 20:08:53;;;;;;;;;;;9.80;99.90;;;;;;8324610;28;19929;-70
2023/11/04 20:12:55;;;;;;;;;;;9.80;99.90;;;;;;8326243;28;19937;-70
2023/11/04 20:16:57;;;;;;;;;;;9.90;99.90;;;;;;8321389;28;20232;-70
2023/11/04 20:20:59;;;;;;;;;;;9.90;99.90;;;;;;8310848;28;19932;-70
2023/11/04 20:25:00;;;;;;;;;;;9.90;99.90;;;;;;8321309;28;19925;-70
2023/11/04 20:29:03;;;;;;;;;;;10.00;99.90;;;;;;8315333;28;19928;-70
2023/11/04 20:33:05;;;;;;;;;;;10.00;99.90;;;;;;8322462;28;19952;-70
2023/11/04 20:37:07;;;;;;;;;;;10.00;99.90;;;;;;8320625;28;19925;-70
2023/11/04 20:41:08;;;;;;;;;;;10.10;99.90;;;;;;8322247;28;19975;-70
2023/11/04 20:45:10;;;;;;;;;;;10.10;99.90;;;;;;8319120;28;19929;-70
2023/11/04 20:49:12;;;;;;;;;;;10.10;99.90;;;;;;8316076;28;20347;-70
2023/11/04 20:53:13;;;;;;;;;;;10.10;99.90;;;;;;8319256;28;20292;-70
2023/11/04 20:57:15;;;;;;;;;;;10.00;99.90;;;;;;8318083;28;19925;-70
2023/11/04 21:01:17;;;;;;;;;;;10.10;99.90;;;;;;8329333;28;19932;-70
2023/11/04 21:05:18;;;;;;;;;;;10.10;99.90;;;;;;8319842;28;19936;-70
2023/11/04 21:09:20;;;;;;;;;;;10.10;99.90;;;;;;8314537;28;20048;-70
2023/11/04 21:13:22;;;;;;;;;;;10.10;99.90;;;;;;8321082;28;20320;-70
2023/11/04 21:17:23;;;;;;;;;;;10.10;99.90;;;;;;8317990;28;20213;-70
2023/11/04 21:21:25;;;;;;;;;;;10.10;99.90;;;;;;8322914;28;19936;-70
2023/11/04 21:25:27;;;;;;;;;;;10.10;99.90;;;;;;8324289;28;19931;-70
2023/11/04 21:29:29;;;;;;;;;;;10.10;99.90;;;;;;8324468;28;19940;-70
2023/11/04 21:33:30;;;;;;;;;;;10.10;99.90;;;;;;8326365;28;19933;-70
2023/11/04 21:37:33;;;;;;;;;;;10.10;99.90;;;;;;8326257;28;19925;-70
2023/11/04 21:41:35;;;;;;;;;;;10.00;99.90;;;;;;8324687;28;20027;-70
2023/11/04 21:45:36;;;;;;;;;;;10.00;99.90;;;;;;8324412;28;19964;-70
2023/11/04 21:49:38;;;;;;;;;;;10.00;99.90;;;;;;8323376;28;19969;-70
2023/11/04 21:53:41;;;;;;;;;;;10.00;99.90;;;;;;8327542;28;19967;-70
2023/11/04 21:57:43;;;;;;;;;;;9.90;99.90;;;;;;8329033;28;20509;-70
2023/11/04 22:01:44;;;;;;;;;;;9.90;99.90;;;;;;8332434;28;19932;-70
2023/11/04 22:05:46;;;;;;;;;;;9.90;99.90;;;;;;8357518;28;19971;-70
2023/11/04 22:09:48;;;;;;;;;;;9.90;99.90;;;;;;8352939;28;20007;-70
2023/11/04 22:13:49;;;;;;;;;;;9.80;99.90;;;;;;8354953;28;19924;-70
2023/11/04 22:27:52;;;;;;;;;;;9.90;99.90;;;;;;8354330;28;19924;-70
2023/11/04 22:31:54;;;;;;;;;;;9.90;99.90;;;;;;8359619;28;19925;-70
2023/11/04 22:35:55;;;;;;;;;;;9.90;99.90;;;;;;8355954;28;19929;-70
2023/11/04 22:39:57;;;;;;;;;;;10.00;99.90;;;;;;8337740;28;19925;-70
2023/11/04 22:43:59;;;;;;;;;;;10.00;99.90;;;;;;8358794;28;19975;-70
2023/11/04 22:48:00;;;;;;;;;;;10.00;99.90;;;;;;8358057;28;19982;-70
2023/11/04 22:52:03;;;;;;;;;;;10.00;99.90;;;;;;8356523;28;19931;-70
2023/11/04 22:56:05;;;;;;;;;;;10.00;99.90;;;;;;8357054;28;19979;-70
2023/11/04 23:00:17;;;;;;;;;;;10.10;99.90;;;;;;8353236;28;20409;-70
2023/11/04 23:04:19;;;;;;;;;;;10.00;99.90;;;;;;8338234;28;19925;-70
2023/11/04 23:08:21;;;;;;;;;;;10.00;99.90;;;;;;8352437;28;19929;-70
2023/11/04 23:12:22;;;;;;;;;;;10.00;99.90;;;;;;8350534;28;20222;-70
2023/11/04 23:16:24;;;;;;;;;;;10.00;99.90;;;;;;8355236;28;20040;-70
2023/11/04 23:20:26;;;;;;;;;;;9.90;99.90;;;;;;8352829;28;20332;-70
2023/11/04 23:24:28;;;;;;;;;;;9.90;99.90;;;;;;8356824;28;19929;-70
2023/11/04 23:28:29;;;;;;;;;;;9.90;99.90;;;;;;8356230;28;19932;-70
2023/11/04 23:32:31;;;;;;;;;;;9.80;99.90;;;;;;8352771;28;20326;-70
2023/11/04 23:36:33;;;;;;;;;;;9.80;99.90;;;;;;8352207;28;19925;-70
2023/11/04 23:40:34;;;;;;;;;;;9.80;99.90;;;;;;8335629;28;19948;-70
2023/11/04 23:44:36;;;;;;;;;;;9.80;99.90;;;;;;8355949;28;19932;-70
2023/11/04 23:48:38;;;;;;;;;;;9.80;99.90;;;;;;8347033;28;19924;-70
2023/11/04 23:52:40;;;;;;;;;;;9.80;99.90;;;;;;8346186;28;19932;-70
2023/11/04 23:56:41;;;;;;;;;;;9.80;99.90;;;;;;8337405;28;19936;-70
